This is the latest recevied weather packets stored in our database for station/object WA2TQI. If no packets are shown the sender has not sent any weather packets the latest 10 day(s).
| Time | Temp. | Humidity | Pressure | Rain* | Wind** | Luminosity | Snow |
|---|---|---|---|---|---|---|---|
| 1777731346 | 12.22° C | 74% | 1013.9 hPa | 0 mm | - | - | - |
| 1777731044 | 12.78° C | 73% | 1013.9 hPa | 0 mm | - | - | - |
| 1777730742 | 12.78° C | 73% | 1014.1 hPa | 0 mm | - | - | - |
| 1777730438 | 12.78° C | 76% | 1014 hPa | 0 mm | - | - | - |
| 1777730134 | 12.78° C | 77% | 1013.9 hPa | 0 mm | - | - | - |
| 1777729831 | 12.22° C | 81% | 1013.7 hPa | 0 mm | - | - | - |
| 1777729527 | 12.22° C | 83% | 1013.5 hPa | 0 mm | - | - | - |
| 1777729224 | 12.22° C | 83% | 1013.8 hPa | 0 mm | - | - | - |
| 1777728921 | 11.67° C | 84% | 1013.7 hPa | 0 mm | - | - | - |
| 1777728618 | 11.67° C | 84% | 1014.1 hPa | 0 mm | - | - | - |
| 1777728315 | 11.67° C | 84% | 1013.7 hPa | 0 mm | - | - | - |
| 1777728012 | 11.67° C | 85% | 1014 hPa | 0 mm | - | - | - |
| 1777727709 | 12.22° C | 84% | 1014.1 hPa | 0 mm | - | - | - |
| 1777727406 | 12.22° C | 83% | 1014.1 hPa | 0 mm | - | - | - |
| 1777726801 | 12.22° C | 83% | 1014.2 hPa | 0 mm | - | - | - |
| 1777726195 | 11.67° C | 85% | 1014.1 hPa | 0 mm | - | - | - |
| 1777725891 | 12.22° C | 84% | 1014 hPa | 0 mm | - | - | - |
| 1777725589 | 11.67° C | 85% | 1014.1 hPa | 0 mm | - | - | - |
| 1777725286 | 12.22° C | 84% | 1014.2 hPa | 0 mm | - | - | - |
| 1777724983 | 12.22° C | 85% | 1014 hPa | 0 mm | - | - | - |
| 1777724679 | 12.22° C | 85% | 1014.1 hPa | 0 mm | - | - | - |
| 1777724377 | 12.22° C | 84% | 1014 hPa | 0 mm | - | - | - |
| 1777724074 | 12.22° C | 86% | 1014 hPa | 0 mm | - | - | - |
| 1777723772 | 11.67° C | 87% | 1013.9 hPa | 0 mm | - | - | - |
| 1777723468 | 11.11° C | 87% | 1013.8 hPa | 0 mm | - | - | - |
* Rain latest hour (hover to see other rain measurements)
** Current wind speed in m/s (hover to see current wind gust speed)